sensor_id;sensor_type;location;lat;lon;timestamp;temperature;humidity
24678;DHT22;12800;53.094;8.778;2023-03-24T00:00:13;13.10;86.90
24678;DHT22;12800;53.094;8.778;2023-03-24T00:02:42;13.10;86.20
24678;DHT22;12800;53.094;8.778;2023-03-24T00:05:16;13.00;86.20
24678;DHT22;12800;53.094;8.778;2023-03-24T00:07:42;13.00;86.50
24678;DHT22;12800;53.094;8.778;2023-03-24T00:10:15;13.00;86.50
24678;DHT22;12800;53.094;8.778;2023-03-24T00:12:43;13.00;86.60
24678;DHT22;12800;53.094;8.778;2023-03-24T00:15:18;13.00;86.70
24678;DHT22;12800;53.094;8.778;2023-03-24T00:17:45;12.90;86.70
24678;DHT22;12800;53.094;8.778;2023-03-24T00:20:13;12.90;86.80
24678;DHT22;12800;53.094;8.778;2023-03-24T00:22:42;12.90;86.80
24678;DHT22;12800;53.094;8.778;2023-03-24T00:25:13;12.90;86.80
24678;DHT22;12800;53.094;8.778;2023-03-24T00:27:39;12.90;86.90
24678;DHT22;12800;53.094;8.778;2023-03-24T00:30:07;12.90;87.10
24678;DHT22;12800;53.094;8.778;2023-03-24T00:32:34;12.90;87.20
24678;DHT22;12800;53.094;8.778;2023-03-24T00:35:05;12.90;87.20
24678;DHT22;12800;53.094;8.778;2023-03-24T00:37:34;12.90;87.30
24678;DHT22;12800;53.094;8.778;2023-03-24T00:40:03;12.80;87.30
24678;DHT22;12800;53.094;8.778;2023-03-24T00:42:33;12.80;87.40
24678;DHT22;12800;53.094;8.778;2023-03-24T00:45:00;12.80;87.50
24678;DHT22;12800;53.094;8.778;2023-03-24T00:47:28;12.80;87.50
24678;DHT22;12800;53.094;8.778;2023-03-24T00:49:54;12.80;87.60
24678;DHT22;12800;53.094;8.778;2023-03-24T00:52:23;12.80;87.70
24678;DHT22;12800;53.094;8.778;2023-03-24T00:54:53;12.80;87.70
24678;DHT22;12800;53.094;8.778;2023-03-24T00:57:22;12.70;87.70
24678;DHT22;12800;53.094;8.778;2023-03-24T00:59:51;12.70;87.80
24678;DHT22;12800;53.094;8.778;2023-03-24T01:02:20;12.80;88.00
24678;DHT22;12800;53.094;8.778;2023-03-24T01:04:56;12.70;88.00
24678;DHT22;12800;53.094;8.778;2023-03-24T01:07:24;12.70;88.00
24678;DHT22;12800;53.094;8.778;2023-03-24T01:09:50;12.70;88.20
24678;DHT22;12800;53.094;8.778;2023-03-24T01:12:34;12.70;88.30
24678;DHT22;12800;53.094;8.778;2023-03-24T01:15:04;12.70;88.30
24678;DHT22;12800;53.094;8.778;2023-03-24T01:17:31;12.70;88.40
24678;DHT22;12800;53.094;8.778;2023-03-24T01:19:57;12.70;88.50
24678;DHT22;12800;53.094;8.778;2023-03-24T01:22:27;12.70;88.60
24678;DHT22;12800;53.094;8.778;2023-03-24T01:24:54;12.70;88.70
24678;DHT22;12800;53.094;8.778;2023-03-24T01:27:20;12.70;88.80
24678;DHT22;12800;53.094;8.778;2023-03-24T01:29:46;12.70;88.80
24678;DHT22;12800;53.094;8.778;2023-03-24T01:32:12;12.70;89.00
24678;DHT22;12800;53.094;8.778;2023-03-24T01:34:38;12.70;89.00
24678;DHT22;12800;53.094;8.778;2023-03-24T01:37:04;12.70;89.10
24678;DHT22;12800;53.094;8.778;2023-03-24T01:39:30;12.70;89.20
24678;DHT22;12800;53.094;8.778;2023-03-24T01:41:57;12.70;89.30
24678;DHT22;12800;53.094;8.778;2023-03-24T01:44:24;12.70;89.20
24678;DHT22;12800;53.094;8.778;2023-03-24T01:46:51;12.70;89.40
24678;DHT22;12800;53.094;8.778;2023-03-24T01:49:17;12.70;89.40
24678;DHT22;12800;53.094;8.778;2023-03-24T01:51:46;12.70;89.60
24678;DHT22;12800;53.094;8.778;2023-03-24T01:54:39;12.70;89.60
24678;DHT22;12800;53.094;8.778;2023-03-24T01:57:16;12.70;89.90
24678;DHT22;12800;53.094;8.778;2023-03-24T01:59:48;12.70;89.80
24678;DHT22;12800;53.094;8.778;2023-03-24T02:02:15;12.70;90.00
24678;DHT22;12800;53.094;8.778;2023-03-24T02:04:44;12.70;90.00
24678;DHT22;12800;53.094;8.778;2023-03-24T02:07:47;12.70;90.10
24678;DHT22;12800;53.094;8.778;2023-03-24T02:10:16;12.70;90.10
24678;DHT22;12800;53.094;8.778;2023-03-24T02:12:42;12.70;90.20
24678;DHT22;12800;53.094;8.778;2023-03-24T02:15:10;12.70;90.20
24678;DHT22;12800;53.094;8.778;2023-03-24T02:18:08;12.70;90.30
24678;DHT22;12800;53.094;8.778;2023-03-24T02:40:41;12.70;90.60
24678;DHT22;12800;53.094;8.778;2023-03-24T02:51:43;12.80;90.70
24678;DHT22;12800;53.094;8.778;2023-03-24T02:54:18;12.80;90.80
24678;DHT22;12800;53.094;8.778;2023-03-24T02:57:41;12.80;90.80
24678;DHT22;12800;53.094;8.778;2023-03-24T03:02:30;12.80;90.80
24678;DHT22;12800;53.094;8.778;2023-03-24T03:05:08;12.80;90.80
24678;DHT22;12800;53.094;8.778;2023-03-24T03:07:40;12.80;90.80
24678;DHT22;12800;53.094;8.778;2023-03-24T03:10:33;12.80;90.90
24678;DHT22;12800;53.094;8.778;2023-03-24T03:13:03;12.90;90.90
24678;DHT22;12800;53.094;8.778;2023-03-24T03:15:46;12.90;90.90
24678;DHT22;12800;53.094;8.778;2023-03-24T03:18:20;12.90;90.90
24678;DHT22;12800;53.094;8.778;2023-03-24T03:20:53;13.00;90.90
24678;DHT22;12800;53.094;8.778;2023-03-24T03:23:28;13.00;91.00
24678;DHT22;12800;53.094;8.778;2023-03-24T03:25:59;13.00;90.90
24678;DHT22;12800;53.094;8.778;2023-03-24T03:28:32;13.00;91.00
24678;DHT22;12800;53.094;8.778;2023-03-24T03:31:01;13.10;91.00
24678;DHT22;12800;53.094;8.778;2023-03-24T03:36:06;13.10;91.00
24678;DHT22;12800;53.094;8.778;2023-03-24T03:38:52;13.10;91.00
24678;DHT22;12800;53.094;8.778;2023-03-24T03:41:19;13.10;91.00
24678;DHT22;12800;53.094;8.778;2023-03-24T03:43:46;13.10;91.10
24678;DHT22;12800;53.094;8.778;2023-03-24T03:46:14;13.10;91.10
24678;DHT22;12800;53.094;8.778;2023-03-24T03:48:40;13.10;91.20
24678;DHT22;12800;53.094;8.778;2023-03-24T03:51:07;13.10;91.20
24678;DHT22;12800;53.094;8.778;2023-03-24T03:53:51;13.10;91.30
24678;DHT22;12800;53.094;8.778;2023-03-24T03:56:21;13.10;91.30
24678;DHT22;12800;53.094;8.778;2023-03-24T03:58:47;13.10;91.30
24678;DHT22;12800;53.094;8.778;2023-03-24T04:01:16;13.10;91.30
24678;DHT22;12800;53.094;8.778;2023-03-24T04:07:07;13.10;91.30
24678;DHT22;12800;53.094;8.778;2023-03-24T04:12:58;13.20;91.40
24678;DHT22;12800;53.094;8.778;2023-03-24T04:26:52;13.20;91.50
24678;DHT22;12800;53.094;8.778;2023-03-24T04:29:45;13.30;91.50
24678;DHT22;12800;53.094;8.778;2023-03-24T04:35:24;13.30;91.50
24678;DHT22;12800;53.094;8.778;2023-03-24T04:38:02;13.30;91.50
24678;DHT22;12800;53.094;8.778;2023-03-24T04:40:32;13.30;91.60
24678;DHT22;12800;53.094;8.778;2023-03-24T04:43:02;13.30;91.60
24678;DHT22;12800;53.094;8.778;2023-03-24T04:45:29;13.30;91.60
24678;DHT22;12800;53.094;8.778;2023-03-24T04:48:00;13.30;91.60
24678;DHT22;12800;53.094;8.778;2023-03-24T04:50:38;13.30;91.60
24678;DHT22;12800;53.094;8.778;2023-03-24T04:53:06;13.30;91.60
24678;DHT22;12800;53.094;8.778;2023-03-24T04:58:08;13.30;91.60
24678;DHT22;12800;53.094;8.778;2023-03-24T05:00:34;13.40;91.60
24678;DHT22;12800;53.094;8.778;2023-03-24T05:03:01;13.40;91.60
24678;DHT22;12800;53.094;8.778;2023-03-24T05:05:27;13.40;91.60
24678;DHT22;12800;53.094;8.778;2023-03-24T05:07:53;13.40;91.60
24678;DHT22;12800;53.094;8.778;2023-03-24T05:10:19;13.40;92.00
24678;DHT22;12800;53.094;8.778;2023-03-24T05:12:44;13.40;91.60
24678;DHT22;12800;53.094;8.778;2023-03-24T05:15:11;13.40;91.70
24678;DHT22;12800;53.094;8.778;2023-03-24T05:17:36;13.40;91.80
24678;DHT22;12800;53.094;8.778;2023-03-24T05:20:02;13.40;91.80
24678;DHT22;12800;53.094;8.778;2023-03-24T05:22:31;13.40;91.90
24678;DHT22;12800;53.094;8.778;2023-03-24T05:24:57;13.30;91.90
24678;DHT22;12800;53.094;8.778;2023-03-24T05:27:22;13.40;92.00
24678;DHT22;12800;53.094;8.778;2023-03-24T05:29:48;13.30;92.00
24678;DHT22;12800;53.094;8.778;2023-03-24T05:32:13;13.30;92.00
24678;DHT22;12800;53.094;8.778;2023-03-24T05:34:39;13.40;92.10
24678;DHT22;12800;53.094;8.778;2023-03-24T05:37:05;13.40;92.10
24678;DHT22;12800;53.094;8.778;2023-03-24T05:39:33;13.40;92.10
24678;DHT22;12800;53.094;8.778;2023-03-24T05:41:59;13.40;92.10
24678;DHT22;12800;53.094;8.778;2023-03-24T05:44:25;13.40;92.10
24678;DHT22;12800;53.094;8.778;2023-03-24T05:46:50;13.40;92.10
24678;DHT22;12800;53.094;8.778;2023-03-24T05:49:16;13.40;92.10
24678;DHT22;12800;53.094;8.778;2023-03-24T05:51:41;13.40;92.10
24678;DHT22;12800;53.094;8.778;2023-03-24T05:54:07;13.40;92.20
24678;DHT22;12800;53.094;8.778;2023-03-24T05:56:32;13.40;92.20
24678;DHT22;12800;53.094;8.778;2023-03-24T05:58:58;13.40;92.10
24678;DHT22;12800;53.094;8.778;2023-03-24T06:01:24;13.40;92.10
24678;DHT22;12800;53.094;8.778;2023-03-24T06:03:49;13.40;92.10
24678;DHT22;12800;53.094;8.778;2023-03-24T06:06:15;13.40;92.00
24678;DHT22;12800;53.094;8.778;2023-03-24T06:08:42;13.40;91.90
24678;DHT22;12800;53.094;8.778;2023-03-24T06:11:10;13.40;91.80
24678;DHT22;12800;53.094;8.778;2023-03-24T06:13:35;13.40;91.60
24678;DHT22;12800;53.094;8.778;2023-03-24T06:16:01;13.40;91.40
24678;DHT22;12800;53.094;8.778;2023-03-24T06:18:27;13.30;91.10
24678;DHT22;12800;53.094;8.778;2023-03-24T06:20:55;13.30;90.70
24678;DHT22;12800;53.094;8.778;2023-03-24T06:23:24;13.20;90.50
24678;DHT22;12800;53.094;8.778;2023-03-24T06:25:54;13.20;90.40
24678;DHT22;12800;53.094;8.778;2023-03-24T06:28:20;13.20;90.20
24678;DHT22;12800;53.094;8.778;2023-03-24T06:30:46;13.20;90.00
24678;DHT22;12800;53.094;8.778;2023-03-24T06:33:13;13.20;89.80
24678;DHT22;12800;53.094;8.778;2023-03-24T06:35:39;13.20;89.00
24678;DHT22;12800;53.094;8.778;2023-03-24T06:38:05;13.10;89.60
24678;DHT22;12800;53.094;8.778;2023-03-24T06:40:31;13.10;88.40
24678;DHT22;12800;53.094;8.778;2023-03-24T06:42:57;13.10;88.30
24678;DHT22;12800;53.094;8.778;2023-03-24T06:45:23;13.10;87.60
24678;DHT22;12800;53.094;8.778;2023-03-24T06:47:53;13.00;87.20
24678;DHT22;12800;53.094;8.778;2023-03-24T06:50:20;13.00;87.00
24678;DHT22;12800;53.094;8.778;2023-03-24T06:52:46;13.00;86.90
24678;DHT22;12800;53.094;8.778;2023-03-24T06:55:12;13.00;86.90
24678;DHT22;12800;53.094;8.778;2023-03-24T06:57:37;12.90;86.50
24678;DHT22;12800;53.094;8.778;2023-03-24T07:00:04;12.90;86.40
24678;DHT22;12800;53.094;8.778;2023-03-24T07:02:31;12.90;86.20
24678;DHT22;12800;53.094;8.778;2023-03-24T07:05:01;12.80;86.10
24678;DHT22;12800;53.094;8.778;2023-03-24T07:07:31;12.80;86.30
24678;DHT22;12800;53.094;8.778;2023-03-24T07:09:57;12.80;86.10
24678;DHT22;12800;53.094;8.778;2023-03-24T07:12:23;12.80;85.80
24678;DHT22;12800;53.094;8.778;2023-03-24T07:14:48;12.70;85.40
24678;DHT22;12800;53.094;8.778;2023-03-24T07:17:14;12.70;85.40
24678;DHT22;12800;53.094;8.778;2023-03-24T07:19:40;12.70;85.40
24678;DHT22;12800;53.094;8.778;2023-03-24T07:22:05;12.70;85.40
24678;DHT22;12800;53.094;8.778;2023-03-24T07:24:33;12.80;85.10
24678;DHT22;12800;53.094;8.778;2023-03-24T07:27:00;12.80;85.50
24678;DHT22;12800;53.094;8.778;2023-03-24T07:29:26;12.80;84.60
24678;DHT22;12800;53.094;8.778;2023-03-24T07:31:51;12.80;84.20
24678;DHT22;12800;53.094;8.778;2023-03-24T07:34:19;12.80;84.10
24678;DHT22;12800;53.094;8.778;2023-03-24T07:36:44;12.80;84.20
24678;DHT22;12800;53.094;8.778;2023-03-24T07:39:11;12.80;84.40
24678;DHT22;12800;53.094;8.778;2023-03-24T07:41:37;12.80;84.40
24678;DHT22;12800;53.094;8.778;2023-03-24T07:44:03;12.90;84.20
24678;DHT22;12800;53.094;8.778;2023-03-24T07:46:28;12.90;84.00
24678;DHT22;12800;53.094;8.778;2023-03-24T07:48:54;12.90;84.20
24678;DHT22;12800;53.094;8.778;2023-03-24T07:51:20;13.00;83.90
24678;DHT22;12800;53.094;8.778;2023-03-24T07:53:45;13.00;83.40
24678;DHT22;12800;53.094;8.778;2023-03-24T07:56:12;13.10;83.10
24678;DHT22;12800;53.094;8.778;2023-03-24T07:58:38;13.10;82.80
24678;DHT22;12800;53.094;8.778;2023-03-24T08:01:06;13.10;82.40
24678;DHT22;12800;53.094;8.778;2023-03-24T08:03:34;13.10;82.10
24678;DHT22;12800;53.094;8.778;2023-03-24T08:06:00;13.10;81.40
24678;DHT22;12800;53.094;8.778;2023-03-24T08:08:26;13.10;80.90
24678;DHT22;12800;53.094;8.778;2023-03-24T08:10:52;13.10;80.70
24678;DHT22;12800;53.094;8.778;2023-03-24T08:13:18;13.20;80.40
24678;DHT22;12800;53.094;8.778;2023-03-24T08:15:43;13.20;80.30
24678;DHT22;12800;53.094;8.778;2023-03-24T08:18:09;13.20;80.40
24678;DHT22;12800;53.094;8.778;2023-03-24T08:20:35;13.20;80.40
24678;DHT22;12800;53.094;8.778;2023-03-24T08:23:02;13.20;80.20
24678;DHT22;12800;53.094;8.778;2023-03-24T08:25:28;13.20;80.30
24678;DHT22;12800;53.094;8.778;2023-03-24T08:27:54;13.20;80.20
24678;DHT22;12800;53.094;8.778;2023-03-24T08:30:24;13.30;80.50
24678;DHT22;12800;53.094;8.778;2023-03-24T08:32:56;13.30;80.70
24678;DHT22;12800;53.094;8.778;2023-03-24T08:35:26;13.30;80.60
24678;DHT22;12800;53.094;8.778;2023-03-24T08:37:52;13.40;80.30
24678;DHT22;12800;53.094;8.778;2023-03-24T08:40:19;13.40;80.20
24678;DHT22;12800;53.094;8.778;2023-03-24T08:42:49;13.50;80.00
24678;DHT22;12800;53.094;8.778;2023-03-24T08:45:16;13.50;79.40
24678;DHT22;12800;53.094;8.778;2023-03-24T08:47:45;13.50;79.20
24678;DHT22;12800;53.094;8.778;2023-03-24T08:50:11;13.50;79.40
24678;DHT22;12800;53.094;8.778;2023-03-24T08:52:36;13.50;79.60
24678;DHT22;12800;53.094;8.778;2023-03-24T08:55:03;13.60;79.20
24678;DHT22;12800;53.094;8.778;2023-03-24T08:57:29;13.70;79.00
24678;DHT22;12800;53.094;8.778;2023-03-24T08:59:55;13.70;78.20
24678;DHT22;12800;53.094;8.778;2023-03-24T09:02:21;13.80;78.00
24678;DHT22;12800;53.094;8.778;2023-03-24T09:04:47;13.80;76.80
24678;DHT22;12800;53.094;8.778;2023-03-24T09:07:14;13.80;76.50
24678;DHT22;12800;53.094;8.778;2023-03-24T09:09:40;13.80;76.30
24678;DHT22;12800;53.094;8.778;2023-03-24T09:12:06;13.80;75.80
24678;DHT22;12800;53.094;8.778;2023-03-24T09:14:32;13.80;75.50
24678;DHT22;12800;53.094;8.778;2023-03-24T09:16:57;13.80;75.40
24678;DHT22;12800;53.094;8.778;2023-03-24T09:19:23;13.80;75.40
24678;DHT22;12800;53.094;8.778;2023-03-24T09:21:49;13.70;75.10
24678;DHT22;12800;53.094;8.778;2023-03-24T09:24:15;13.70;75.10
24678;DHT22;12800;53.094;8.778;2023-03-24T09:26:41;13.70;75.10
24678;DHT22;12800;53.094;8.778;2023-03-24T09:29:06;13.70;74.80
24678;DHT22;12800;53.094;8.778;2023-03-24T09:31:33;13.70;74.60
24678;DHT22;12800;53.094;8.778;2023-03-24T09:33:58;13.70;75.00
24678;DHT22;12800;53.094;8.778;2023-03-24T09:36:25;13.80;75.20
24678;DHT22;12800;53.094;8.778;2023-03-24T09:38:51;13.80;74.90
24678;DHT22;12800;53.094;8.778;2023-03-24T09:41:21;13.90;74.90
24678;DHT22;12800;53.094;8.778;2023-03-24T09:44:02;14.00;74.70
24678;DHT22;12800;53.094;8.778;2023-03-24T09:46:56;14.00;74.50
24678;DHT22;12800;53.094;8.778;2023-03-24T09:49:27;14.00;74.30
24678;DHT22;12800;53.094;8.778;2023-03-24T09:51:57;14.10;74.60
24678;DHT22;12800;53.094;8.778;2023-03-24T09:54:30;14.20;74.40
24678;DHT22;12800;53.094;8.778;2023-03-24T09:56:57;14.40;74.70
24678;DHT22;12800;53.094;8.778;2023-03-24T09:59:35;14.60;74.20
24678;DHT22;12800;53.094;8.778;2023-03-24T10:02:10;14.70;74.00
24678;DHT22;12800;53.094;8.778;2023-03-24T10:04:36;14.80;73.30
24678;DHT22;12800;53.094;8.778;2023-03-24T10:07:30;14.90;73.50
24678;DHT22;12800;53.094;8.778;2023-03-24T10:09:58;15.00;73.10
24678;DHT22;12800;53.094;8.778;2023-03-24T10:15:13;15.10;72.30
24678;DHT22;12800;53.094;8.778;2023-03-24T10:17:58;15.10;71.70
24678;DHT22;12800;53.094;8.778;2023-03-24T10:20:40;15.00;71.10
24678;DHT22;12800;53.094;8.778;2023-03-24T10:29:27;14.80;70.70
24678;DHT22;12800;53.094;8.778;2023-03-24T10:31:59;14.70;70.30
24678;DHT22;12800;53.094;8.778;2023-03-24T10:34:30;14.60;70.00
24678;DHT22;12800;53.094;8.778;2023-03-24T10:36:59;14.60;70.50
24678;DHT22;12800;53.094;8.778;2023-03-24T10:39:27;14.50;70.40
24678;DHT22;12800;53.094;8.778;2023-03-24T10:41:53;14.50;70.30
24678;DHT22;12800;53.094;8.778;2023-03-24T10:44:20;14.60;70.10
24678;DHT22;12800;53.094;8.778;2023-03-24T10:46:50;14.70;70.00
24678;DHT22;12800;53.094;8.778;2023-03-24T10:49:18;14.70;69.60
24678;DHT22;12800;53.094;8.778;2023-03-24T10:51:47;14.70;69.30
24678;DHT22;12800;53.094;8.778;2023-03-24T10:54:25;14.80;69.30
24678;DHT22;12800;53.094;8.778;2023-03-24T11:07:29;14.70;68.70
24678;DHT22;12800;53.094;8.778;2023-03-24T11:10:13;14.90;68.40
24678;DHT22;12800;53.094;8.778;2023-03-24T11:12:42;14.90;67.90
24678;DHT22;12800;53.094;8.778;2023-03-24T11:15:28;15.00;67.50
24678;DHT22;12800;53.094;8.778;2023-03-24T11:20:38;15.00;68.00
24678;DHT22;12800;53.094;8.778;2023-03-24T11:26:12;15.20;68.20
24678;DHT22;12800;53.094;8.778;2023-03-24T11:28:41;15.30;67.80
24678;DHT22;12800;53.094;8.778;2023-03-24T11:31:09;15.30;67.50
24678;DHT22;12800;53.094;8.778;2023-03-24T11:33:56;15.20;66.90
24678;DHT22;12800;53.094;8.778;2023-03-24T11:39:03;15.20;66.10
24678;DHT22;12800;53.094;8.778;2023-03-24T11:41:35;15.20;64.10
24678;DHT22;12800;53.094;8.778;2023-03-24T11:46:57;15.10;63.80
24678;DHT22;12800;53.094;8.778;2023-03-24T11:49:28;15.20;64.10
24678;DHT22;12800;53.094;8.778;2023-03-24T11:51:55;15.30;65.00
24678;DHT22;12800;53.094;8.778;2023-03-24T11:54:29;15.40;63.90
24678;DHT22;12800;53.094;8.778;2023-03-24T11:57:00;15.40;63.50
24678;DHT22;12800;53.094;8.778;2023-03-24T12:04:40;15.40;63.50
24678;DHT22;12800;53.094;8.778;2023-03-24T12:10:33;15.40;63.00
24678;DHT22;12800;53.094;8.778;2023-03-24T12:13:34;15.50;62.10
24678;DHT22;12800;53.094;8.778;2023-03-24T12:19:03;15.40;59.60
24678;DHT22;12800;53.094;8.778;2023-03-24T12:21:42;15.40;59.30
24678;DHT22;12800;53.094;8.778;2023-03-24T12:24:41;15.50;59.10
24678;DHT22;12800;53.094;8.778;2023-03-24T12:27:28;15.50;58.70
24678;DHT22;12800;53.094;8.778;2023-03-24T12:30:19;15.50;58.70
24678;DHT22;12800;53.094;8.778;2023-03-24T12:33:04;15.60;59.00
24678;DHT22;12800;53.094;8.778;2023-03-24T12:55:47;16.20;56.30
24678;DHT22;12800;53.094;8.778;2023-03-24T13:03:57;16.30;55.70
24678;DHT22;12800;53.094;8.778;2023-03-24T13:06:29;16.40;55.90
24678;DHT22;12800;53.094;8.778;2023-03-24T13:11:35;16.50;55.80
24678;DHT22;12800;53.094;8.778;2023-03-24T13:14:10;16.60;56.20
24678;DHT22;12800;53.094;8.778;2023-03-24T13:16:37;16.60;56.20
24678;DHT22;12800;53.094;8.778;2023-03-24T13:19:09;16.60;55.20
24678;DHT22;12800;53.094;8.778;2023-03-24T13:21:39;16.70;54.60
24678;DHT22;12800;53.094;8.778;2023-03-24T13:24:06;16.70;54.60
24678;DHT22;12800;53.094;8.778;2023-03-24T13:29:20;16.80;54.80
24678;DHT22;12800;53.094;8.778;2023-03-24T13:31:53;16.80;54.80
24678;DHT22;12800;53.094;8.778;2023-03-24T13:37:24;16.90;54.80
24678;DHT22;12800;53.094;8.778;2023-03-24T13:39:56;17.00;54.80
24678;DHT22;12800;53.094;8.778;2023-03-24T13:42:41;17.10;54.90
24678;DHT22;12800;53.094;8.778;2023-03-24T13:53:59;16.90;54.80
24678;DHT22;12800;53.094;8.778;2023-03-24T13:56:39;16.90;55.00
24678;DHT22;12800;53.094;8.778;2023-03-24T13:59:27;16.80;55.40
24678;DHT22;12800;53.094;8.778;2023-03-24T14:07:45;17.00;56.60
24678;DHT22;12800;53.094;8.778;2023-03-24T14:23:39;17.40;55.70
24678;DHT22;12800;53.094;8.778;2023-03-24T14:28:43;17.20;55.20
24678;DHT22;12800;53.094;8.778;2023-03-24T14:36:43;16.90;55.50
24678;DHT22;12800;53.094;8.778;2023-03-24T14:42:00;16.70;55.50
24678;DHT22;12800;53.094;8.778;2023-03-24T14:47:33;16.90;55.10
24678;DHT22;12800;53.094;8.778;2023-03-24T14:50:21;17.00;55.00
24678;DHT22;12800;53.094;8.778;2023-03-24T14:52:50;17.10;54.60
24678;DHT22;12800;53.094;8.778;2023-03-24T14:55:17;17.10;54.90
24678;DHT22;12800;53.094;8.778;2023-03-24T14:57:56;17.20;55.00
24678;DHT22;12800;53.094;8.778;2023-03-24T15:00:49;17.30;55.10
24678;DHT22;12800;53.094;8.778;2023-03-24T15:03:35;17.30;55.00
24678;DHT22;12800;53.094;8.778;2023-03-24T15:08:52;17.30;55.00
24678;DHT22;12800;53.094;8.778;2023-03-24T15:11:27;17.30;55.10
24678;DHT22;12800;53.094;8.778;2023-03-24T15:13:54;17.20;55.30
24678;DHT22;12800;53.094;8.778;2023-03-24T15:21:34;17.40;56.30
24678;DHT22;12800;53.094;8.778;2023-03-24T15:24:15;17.50;56.40
24678;DHT22;12800;53.094;8.778;2023-03-24T15:27:23;17.60;56.40
24678;DHT22;12800;53.094;8.778;2023-03-24T15:29:58;17.70;56.80
24678;DHT22;12800;53.094;8.778;2023-03-24T15:32:26;17.80;56.80
24678;DHT22;12800;53.094;8.778;2023-03-24T15:34:58;17.70;56.70
24678;DHT22;12800;53.094;8.778;2023-03-24T15:37:33;17.60;56.70
24678;DHT22;12800;53.094;8.778;2023-03-24T15:39:59;17.60;57.00
24678;DHT22;12800;53.094;8.778;2023-03-24T15:42:25;17.50;57.10
24678;DHT22;12800;53.094;8.778;2023-03-24T15:44:52;17.50;57.60
24678;DHT22;12800;53.094;8.778;2023-03-24T15:47:28;17.60;57.60
24678;DHT22;12800;53.094;8.778;2023-03-24T15:49:56;17.70;57.60
24678;DHT22;12800;53.094;8.778;2023-03-24T15:52:37;17.80;57.60
24678;DHT22;12800;53.094;8.778;2023-03-24T15:57:55;18.50;57.30
24678;DHT22;12800;53.094;8.778;2023-03-24T16:00:27;18.90;56.50
24678;DHT22;12800;53.094;8.778;2023-03-24T16:02:55;19.20;55.80
24678;DHT22;12800;53.094;8.778;2023-03-24T16:05:27;19.50;55.20
24678;DHT22;12800;53.094;8.778;2023-03-24T16:10:36;19.60;54.70
24678;DHT22;12800;53.094;8.778;2023-03-24T16:13:16;19.80;54.40
24678;DHT22;12800;53.094;8.778;2023-03-24T16:16:00;19.90;54.00
24678;DHT22;12800;53.094;8.778;2023-03-24T16:18:36;19.50;53.90
24678;DHT22;12800;53.094;8.778;2023-03-24T16:21:14;19.00;53.80
24678;DHT22;12800;53.094;8.778;2023-03-24T16:23:40;18.60;54.70
24678;DHT22;12800;53.094;8.778;2023-03-24T16:26:30;18.10;55.00
24678;DHT22;12800;53.094;8.778;2023-03-24T16:29:12;17.70;55.50
24678;DHT22;12800;53.094;8.778;2023-03-24T16:31:39;17.30;56.20
24678;DHT22;12800;53.094;8.778;2023-03-24T16:34:05;17.00;56.90
24678;DHT22;12800;53.094;8.778;2023-03-24T16:36:30;16.80;57.60
24678;DHT22;12800;53.094;8.778;2023-03-24T16:38:58;16.60;58.00
24678;DHT22;12800;53.094;8.778;2023-03-24T16:41:24;16.50;58.60
24678;DHT22;12800;53.094;8.778;2023-03-24T16:43:50;16.30;58.80
24678;DHT22;12800;53.094;8.778;2023-03-24T16:46:33;16.10;59.30
24678;DHT22;12800;53.094;8.778;2023-03-24T16:49:00;16.00;59.80
24678;DHT22;12800;53.094;8.778;2023-03-24T16:51:26;15.90;60.30
24678;DHT22;12800;53.094;8.778;2023-03-24T16:53:52;15.70;60.70
24678;DHT22;12800;53.094;8.778;2023-03-24T16:56:19;15.60;61.30
24678;DHT22;12800;53.094;8.778;2023-03-24T16:58:46;15.50;61.70
24678;DHT22;12800;53.094;8.778;2023-03-24T17:01:34;15.40;62.30
24678;DHT22;12800;53.094;8.778;2023-03-24T17:04:10;15.30;62.60
24678;DHT22;12800;53.094;8.778;2023-03-24T17:06:39;15.30;62.90
24678;DHT22;12800;53.094;8.778;2023-03-24T17:09:05;15.20;63.20
24678;DHT22;12800;53.094;8.778;2023-03-24T17:11:38;15.10;63.50
24678;DHT22;12800;53.094;8.778;2023-03-24T17:14:05;15.00;63.50
24678;DHT22;12800;53.094;8.778;2023-03-24T17:16:34;14.90;63.60
24678;DHT22;12800;53.094;8.778;2023-03-24T17:19:02;14.90;64.00
24678;DHT22;12800;53.094;8.778;2023-03-24T17:21:28;14.80;64.10
24678;DHT22;12800;53.094;8.778;2023-03-24T17:23:54;14.70;64.10
24678;DHT22;12800;53.094;8.778;2023-03-24T17:26:23;14.70;64.50
24678;DHT22;12800;53.094;8.778;2023-03-24T17:28:49;14.60;64.40
24678;DHT22;12800;53.094;8.778;2023-03-24T17:31:15;14.50;64.70
24678;DHT22;12800;53.094;8.778;2023-03-24T17:33:41;14.40;65.10
24678;DHT22;12800;53.094;8.778;2023-03-24T17:36:10;14.40;65.40
24678;DHT22;12800;53.094;8.778;2023-03-24T17:38:37;14.40;65.60
24678;DHT22;12800;53.094;8.778;2023-03-24T17:41:04;14.30;65.90
24678;DHT22;12800;53.094;8.778;2023-03-24T17:43:30;14.30;66.20
24678;DHT22;12800;53.094;8.778;2023-03-24T17:45:58;14.20;66.50
24678;DHT22;12800;53.094;8.778;2023-03-24T17:48:24;14.20;67.00
24678;DHT22;12800;53.094;8.778;2023-03-24T17:50:51;14.10;67.20
24678;DHT22;12800;53.094;8.778;2023-03-24T17:53:16;14.00;67.40
24678;DHT22;12800;53.094;8.778;2023-03-24T17:55:50;14.00;67.80
24678;DHT22;12800;53.094;8.778;2023-03-24T17:58:16;13.90;68.10
24678;DHT22;12800;53.094;8.778;2023-03-24T18:00:41;13.90;68.30
24678;DHT22;12800;53.094;8.778;2023-03-24T18:03:07;13.90;68.60
24678;DHT22;12800;53.094;8.778;2023-03-24T18:05:33;13.80;68.70
24678;DHT22;12800;53.094;8.778;2023-03-24T18:07:58;13.80;69.00
24678;DHT22;12800;53.094;8.778;2023-03-24T18:10:24;13.70;69.10
24678;DHT22;12800;53.094;8.778;2023-03-24T18:12:50;13.70;69.40
24678;DHT22;12800;53.094;8.778;2023-03-24T18:15:17;13.70;69.50
24678;DHT22;12800;53.094;8.778;2023-03-24T18:17:42;13.60;69.70
24678;DHT22;12800;53.094;8.778;2023-03-24T18:20:08;13.60;69.80
24678;DHT22;12800;53.094;8.778;2023-03-24T18:22:39;13.50;70.10
24678;DHT22;12800;53.094;8.778;2023-03-24T18:25:07;13.50;70.30
24678;DHT22;12800;53.094;8.778;2023-03-24T18:27:33;13.50;70.40
24678;DHT22;12800;53.094;8.778;2023-03-24T18:29:59;13.40;70.60
24678;DHT22;12800;53.094;8.778;2023-03-24T18:32:25;13.40;70.80
24678;DHT22;12800;53.094;8.778;2023-03-24T18:34:51;13.40;70.90
24678;DHT22;12800;53.094;8.778;2023-03-24T18:37:17;13.30;70.90
24678;DHT22;12800;53.094;8.778;2023-03-24T18:39:43;13.30;71.00
24678;DHT22;12800;53.094;8.778;2023-03-24T18:42:09;13.30;71.30
24678;DHT22;12800;53.094;8.778;2023-03-24T18:44:35;13.20;71.30
24678;DHT22;12800;53.094;8.778;2023-03-24T18:47:00;13.20;71.30
24678;DHT22;12800;53.094;8.778;2023-03-24T18:49:28;13.20;71.50
24678;DHT22;12800;53.094;8.778;2023-03-24T18:51:53;13.20;71.50
24678;DHT22;12800;53.094;8.778;2023-03-24T18:54:19;13.10;71.50
24678;DHT22;12800;53.094;8.778;2023-03-24T18:56:46;13.10;71.70